Wetterdaten: Woche 26.12.22 - 01.01.23 (KW52)
Datum Zeit Temp. Aussen Temp. o. S. Temp +5cm Feuchte Auss Luftdruck Regen Sonnenschein Regendauer Solar Windben Empfang
26.12.2022 00:00 10,7 C 10,0 C 8,3 C 99 % 1010,5 hPa 0,0 l/m 0,00 h 0,03 h 0 W/m 6,8 km/h (2 Bft) 99,22 %
26.12.2022 01:00 10,6 C 9,8 C 8,3 C 99 % 1010,5 hPa 1,6 l/m 0,00 h 0,90 h 0 W/m 7,6 km/h (2 Bft) 95,37 %
26.12.2022 02:00 10,3 C 9,4 C 8,3 C 99 % 1011,1 hPa 1,2 l/m 0,00 h 0,67 h 0 W/m 6,3 km/h (2 Bft) 98,65 %
26.12.2022 03:00 10,3 C 9,4 C 8,3 C 99 % 1011,4 hPa 0,0 l/m 0,00 h 0,23 h 0 W/m 7,4 km/h (2 Bft) 97,65 %
26.12.2022 04:00 10,0 C 9,4 C 7,8 C 99 % 1011,7 hPa 0,0 l/m 0,00 h 0,00 h 0 W/m 9,1 km/h (2 Bft) 94,40 %
26.12.2022 05:00 9,5 C 8,9 C 7,4 C 99 % 1011,8 hPa 0,0 l/m 0,00 h 0,00 h 0 W/m 5,5 km/h (1 Bft) 97,59 %
26.12.2022 06:00 9,5 C 8,9 C 7,2 C 99 % 1012,1 hPa 0,0 l/m 0,00 h 0,00 h 0 W/m 7,5 km/h (2 Bft) 97,64 %
26.12.2022 07:00 9,7 C 9,1 C 7,4 C 99 % 1012,1 hPa 0,0 l/m 0,00 h 0,00 h 0 W/m 11,6 km/h (2 Bft) 95,86 %
26.12.2022 08:00 9,8 C 9,3 C 7,3 C 98 % 1012,6 hPa 0,0 l/m 0,00 h 0,00 h 0 W/m 16,0 km/h (3 Bft) 99,08 %
26.12.2022 09:00 9,7 C 9,3 C 7,2 C 97 % 1012,9 hPa 0,0 l/m 0,00 h 0,00 h 12 W/m 14,4 km/h (3 Bft) 96,12 %
26.12.2022 10:00 9,9 C 9,5 C 7,2 C 95 % 1013,4 hPa 0,0 l/m 0,00 h 0,00 h 40 W/m 16,9 km/h (3 Bft) 96,94 %
26.12.2022 11:00 10,4 C 10,3 C 7,8 C 92 % 1013,7 hPa 0,0 l/m 0,00 h 0,00 h 85 W/m 19,3 km/h (3 Bft) 98,09 %
26.12.2022 12:00 11,0 C 10,8 C 8,5 C 89 % 1013,6 hPa 0,0 l/m 0,07 h 0,00 h 97 W/m 23,7 km/h (4 Bft) 96,61 %
26.12.2022 13:00 10,5 C 10,0 C 7,8 C 88 % 1014,0 hPa 0,0 l/m 0,03 h 0,13 h 52 W/m 20,3 km/h (4 Bft) 97,59 %
26.12.2022 14:00 9,0 C 8,3 C 6,5 C 88 % 1014,8 hPa 0,0 l/m 0,00 h 0,00 h 54 W/m 14,0 km/h (3 Bft) 97,86 %
26.12.2022 15:00 8,4 C 7,7 C 5,5 C 86 % 1015,6 hPa 0,0 l/m 0,00 h 0,00 h 29 W/m 12,8 km/h (3 Bft) 96,37 %
26.12.2022 16:00 7,5 C 6,8 C 4,5 C 86 % 1016,6 hPa 0,0 l/m 0,13 h 0,00 h 16 W/m 14,3 km/h (3 Bft) 98,15 %
26.12.2022 17:00 6,5 C 5,6 C 3,4 C 86 % 1017,7 hPa 0,0 l/m 0,00 h 0,00 h 0 W/m 13,4 km/h (3 Bft) 96,65 %
26.12.2022 18:00 5,2 C 4,3 C 2,1 C 86 % 1018,6 hPa 0,0 l/m 0,00 h 0,00 h 0 W/m 12,2 km/h (2 Bft) 96,65 %
26.12.2022 19:00 4,4 C 3,6 C 1,4 C 87 % 1019,5 hPa 0,0 l/m 0,00 h 0,00 h 0 W/m 9,5 km/h (2 Bft) 97,23 %
26.12.2022 20:00 3,9 C 3,0 C 0,8 C 88 % 1020,5 hPa 0,0 l/m 0,00 h 0,00 h 0 W/m 10,3 km/h (2 Bft) 97,44 %
26.12.2022 21:00 3,6 C 2,8 C 0,6 C 88 % 1021,2 hPa 0,0 l/m 0,00 h 0,00 h 0 W/m 11,6 km/h (2 Bft) 98,46 %
26.12.2022 22:00 3,8 C 3,2 C 0,7 C 87 % 1021,7 hPa 0,0 l/m 0,00 h 0,03 h 0 W/m 15,7 km/h (3 Bft) 93,63 %
26.12.2022 23:00 3,8 C 3,1 C 0,6 C 87 % 1022,2 hPa 0,0 l/m 0,00 h 0,00 h 0 W/m 19,5 km/h (3 Bft) 99,14 %
27.12.2022 00:00 3,7 C 2,9 C 0,6 C 88 % 1022,8 hPa 0,0 l/m 0,00 h 0,00 h 0 W/m 18,9 km/h (3 Bft) 96,76 %
27.12.2022 01:00 3,8 C 3,1 C 0,6 C 90 % 1023,0 hPa 0,0 l/m 0,00 h 0,00 h 0 W/m 19,5 km/h (3 Bft) 96,83 %
27.12.2022 02:00 3,8 C 2,8 C 0,6 C 91 % 1023,4 hPa 0,0 l/m 0,00 h 0,00 h 0 W/m 18,2 km/h (3 Bft) 96,52 %
27.12.2022 03:00 3,8 C 2,9 C 0,6 C 92 % 1023,9 hPa 0,0 l/m 0,00 h 0,00 h 0 W/m 18,1 km/h (3 Bft) 97,09 %
27.12.2022 04:00 3,9 C 3,2 C 0,6 C 93 % 1024,0 hPa 0,0 l/m 0,00 h 0,00 h 0 W/m 19,4 km/h (3 Bft) 96,51 %
27.12.2022 05:00 4,2 C 3,4 C 1,0 C 93 % 1024,0 hPa 0,2 l/m 0,00 h 0,00 h 0 W/m 21,7 km/h (4 Bft) 94,22 %
27.12.2022 06:00 4,0 C 3,1 C 0,7 C 93 % 1024,6 hPa 0,0 l/m 0,00 h 0,00 h 0 W/m 13,0 km/h (3 Bft) 99,41 %
27.12.2022 07:00 3,6 C 2,8 C 0,6 C 94 % 1025,1 hPa 0,0 l/m 0,00 h 0,00 h 0 W/m 10,3 km/h (2 Bft) 95,19 %
27.12.2022 08:00 3,5 C 2,8 C 0,6 C 94 % 1025,6 hPa 0,0 l/m 0,00 h 0,00 h 7 W/m 10,5 km/h (2 Bft) 97,18 %
27.12.2022 09:00 3,8 C 3,4 C 0,9 C 95 % 1025,9 hPa 0,0 l/m 0,00 h 0,00 h 24 W/m 15,7 km/h (3 Bft) 97,52 %
27.12.2022 10:00 4,8 C 4,6 C 1,9 C 94 % 1026,1 hPa 0,0 l/m 0,53 h 0,00 h 115 W/m 19,3 km/h (3 Bft) 97,02 %
27.12.2022 11:00 5,9 C 5,7 C 2,7 C 91 % 1026,0 hPa 0,0 l/m 0,40 h 0,00 h 124 W/m 19,6 km/h (3 Bft) 98,22 %
27.12.2022 12:00 6,9 C 6,9 C 3,5 C 88 % 1026,0 hPa 0,0 l/m 0,07 h 0,00 h 101 W/m 20,5 km/h (4 Bft) 97,06 %
27.12.2022 13:00 7,1 C 6,7 C 3,9 C 87 % 1025,8 hPa 0,0 l/m 0,00 h 0,00 h 81 W/m 19,0 km/h (3 Bft) 96,88 %
27.12.2022 14:00 7,2 C 6,7 C 3,9 C 87 % 1025,0 hPa 0,0 l/m 0,00 h 0,00 h 63 W/m 17,8 km/h (3 Bft) 98,58 %
27.12.2022 15:00 7,2 C 6,7 C 3,7 C 87 % 1024,5 hPa 0,0 l/m 0,00 h 0,00 h 28 W/m 15,8 km/h (3 Bft) 96,30 %
27.12.2022 16:00 7,1 C 6,2 C 3,3 C 87 % 1024,1 hPa 0,0 l/m 0,00 h 0,00 h 9 W/m 18,3 km/h (3 Bft) 97,29 %
27.12.2022 17:00 6,8 C 6,0 C 2,9 C 86 % 1023,9 hPa 0,0 l/m 0,00 h 0,00 h 0 W/m 16,3 km/h (3 Bft) 98,15 %
27.12.2022 18:00 6,1 C 5,1 C 2,2 C 87 % 1023,8 hPa 0,0 l/m 0,00 h 0,00 h 0 W/m 11,1 km/h (2 Bft) 93,31 %
27.12.2022 19:00 5,4 C 4,4 C 1,7 C 88 % 1023,3 hPa 0,0 l/m 0,00 h 0,00 h 0 W/m 14,1 km/h (3 Bft) 96,29 %
27.12.2022 20:00 5,2 C 4,4 C 1,7 C 88 % 1022,8 hPa 0,0 l/m 0,00 h 0,00 h 0 W/m 15,1 km/h (3 Bft) 98,72 %
27.12.2022 21:00 5,0 C 4,2 C 1,3 C 86 % 1022,0 hPa 0,0 l/m 0,00 h 0,00 h 0 W/m 12,9 km/h (3 Bft) 95,57 %
27.12.2022 22:00 4,8 C 4,1 C 1,3 C 86 % 1021,3 hPa 0,0 l/m 0,00 h 0,00 h 0 W/m 15,0 km/h (3 Bft) 99,14 %
27.12.2022 23:00 5,0 C 4,1 C 1,3 C 86 % 1020,5 hPa 0,0 l/m 0,00 h 0,00 h 0 W/m 12,8 km/h (3 Bft) 96,37 %
28.12.2022 00:00 5,0 C 4,4 C 1,5 C 88 % 1019,3 hPa 0,0 l/m 0,00 h 0,00 h 0 W/m 13,1 km/h (3 Bft) 96,17 %
28.12.2022 01:00 5,6 C 5,1 C 1,5 C 89 % 1018,4 hPa 0,2 l/m 0,00 h 0,43 h 0 W/m 11,6 km/h (2 Bft) 96,94 %
28.12.2022 02:00 6,4 C 5,9 C 2,0 C 91 % 1017,2 hPa 0,0 l/m 0,00 h 0,17 h 0 W/m 18,0 km/h (3 Bft) 98,79 %
28.12.2022 03:00 7,2 C 6,7 C 3,1 C 89 % 1016,3 hPa 0,0 l/m 0,00 h 0,00 h 0 W/m 22,9 km/h (4 Bft) 96,30 %
28.12.2022 04:00 7,7 C 7,1 C 3,8 C 88 % 1015,3 hPa 0,0 l/m 0,00 h 0,00 h 0 W/m 26,9 km/h (4 Bft) 97,51 %
28.12.2022 05:00 8,5 C 7,8 C 4,4 C 87 % 1014,6 hPa 0,0 l/m 0,00 h 0,10 h 0 W/m 33,9 km/h (5 Bft) 98,51 %
28.12.2022 06:00 8,7 C 8,0 C 4,5 C 87 % 1014,2 hPa 0,0 l/m 0,00 h 0,10 h 0 W/m 34,4 km/h (5 Bft) 96,18 %
28.12.2022 07:00 8,8 C 8,1 C 4,9 C 88 % 1013,7 hPa 0,0 l/m 0,00 h 0,00 h 0 W/m 32,3 km/h (5 Bft) 97,09 %
28.12.2022 08:00 8,9 C 8,3 C 5,0 C 89 % 1013,6 hPa 0,0 l/m 0,00 h 0,00 h 0 W/m 30,3 km/h (5 Bft) 97,01 %
28.12.2022 09:00 9,2 C 8,4 C 5,3 C 89 % 1013,4 hPa 0,0 l/m 0,00 h 0,00 h 18 W/m 36,4 km/h (5 Bft) 94,00 %
28.12.2022 10:00 9,5 C 9,0 C 5,7 C 88 % 1013,4 hPa 0,0 l/m 0,00 h 0,00 h 38 W/m 33,6 km/h (5 Bft) 98,22 %
28.12.2022 11:00 10,1 C 9,8 C 6,4 C 86 % 1012,9 hPa 0,0 l/m 0,00 h 0,00 h 101 W/m 35,5 km/h (5 Bft) 97,86 %
28.12.2022 12:00 10,5 C 10,0 C 6,7 C 85 % 1012,4 hPa 0,0 l/m 0,00 h 0,00 h 88 W/m 35,7 km/h (5 Bft) 94,37 %
28.12.2022 13:00 10,4 C 9,7 C 6,2 C 83 % 1011,8 hPa 0,0 l/m 0,00 h 0,40 h 56 W/m 37,7 km/h (5 Bft) 97,93 %
28.12.2022 14:00 10,1 C 9,4 C 6,0 C 83 % 1010,9 hPa 0,0 l/m 0,00 h 0,03 h 38 W/m 30,0 km/h (5 Bft) 97,51 %
28.12.2022 15:00 10,3 C 9,8 C 6,1 C 82 % 1010,0 hPa 0,0 l/m 0,00 h 0,00 h 22 W/m 31,2 km/h (5 Bft) 96,53 %
28.12.2022 16:00 10,3 C 9,5 C 6,1 C 80 % 1009,0 hPa 0,0 l/m 0,00 h 0,00 h 7 W/m 26,1 km/h (4 Bft) 97,10 %
28.12.2022 17:00 10,3 C 9,3 C 5,7 C 79 % 1008,1 hPa 0,0 l/m 0,00 h 0,30 h 0 W/m 20,8 km/h (4 Bft) 96,44 %
28.12.2022 18:00 9,8 C 8,8 C 4,2 C 85 % 1007,2 hPa 0,2 l/m 0,00 h 0,93 h 0 W/m 23,6 km/h (4 Bft) 97,26 %
28.12.2022 19:00 9,3 C 7,9 C 4,1 C 89 % 1006,4 hPa 0,8 l/m 0,00 h 1,00 h 0 W/m 24,4 km/h (4 Bft) 97,30 %
28.12.2022 20:00 9,0 C 8,0 C 4,2 C 92 % 1005,6 hPa 0,4 l/m 0,00 h 0,50 h 0 W/m 25,8 km/h (4 Bft) 95,49 %
28.12.2022 21:00 9,9 C 9,3 C 4,8 C 91 % 1005,1 hPa 0,0 l/m 0,00 h 0,00 h 0 W/m 27,9 km/h (4 Bft) 98,26 %
28.12.2022 22:00 10,9 C 10,2 C 5,5 C 89 % 1004,7 hPa 0,0 l/m 0,00 h 0,00 h 0 W/m 29,3 km/h (5 Bft) 97,35 %
28.12.2022 23:00 11,0 C 10,2 C 5,6 C 90 % 1004,4 hPa 0,0 l/m 0,00 h 0,27 h 0 W/m 28,2 km/h (4 Bft) 96,46 %
29.12.2022 00:00 11,4 C 10,5 C 6,4 C 89 % 1003,9 hPa 0,0 l/m 0,00 h 0,33 h 0 W/m 29,3 km/h (5 Bft) 97,92 %
29.12.2022 01:00 11,4 C 10,6 C 7,1 C 91 % 1003,1 hPa 0,0 l/m 0,00 h 0,10 h 0 W/m 30,5 km/h (5 Bft) 97,67 %
29.12.2022 02:00 11,8 C 11,0 C 7,7 C 88 % 1002,6 hPa 0,0 l/m 0,00 h 0,13 h 0 W/m 30,0 km/h (5 Bft) 95,72 %
29.12.2022 03:00 11,8 C 11,1 C 7,7 C 85 % 1002,2 hPa 0,0 l/m 0,00 h 0,03 h 0 W/m 35,3 km/h (5 Bft) 97,82 %
29.12.2022 04:00 11,9 C 11,1 C 7,7 C 85 % 1001,6 hPa 0,0 l/m 0,00 h 0,00 h 0 W/m 36,6 km/h (5 Bft) 96,76 %
29.12.2022 05:00 12,0 C 11,2 C 7,8 C 84 % 1001,4 hPa 0,0 l/m 0,00 h 0,00 h 0 W/m 35,2 km/h (5 Bft) 97,89 %
29.12.2022 06:00 11,4 C 10,3 C 6,2 C 87 % 1001,7 hPa 0,2 l/m 0,00 h 0,53 h 0 W/m 25,4 km/h (4 Bft) 97,35 %
29.12.2022 07:00 11,3 C 10,5 C 6,7 C 85 % 1002,3 hPa 0,0 l/m 0,00 h 0,00 h 0 W/m 25,3 km/h (4 Bft) 98,45 %
29.12.2022 08:00 11,3 C 10,6 C 6,9 C 82 % 1002,9 hPa 0,0 l/m 0,00 h 0,00 h 5 W/m 30,8 km/h (5 Bft) 91,11 %
29.12.2022 09:00 11,0 C 10,3 C 6,5 C 82 % 1003,5 hPa 0,0 l/m 0,00 h 0,37 h 15 W/m 28,0 km/h (4 Bft) 97,24 %
29.12.2022 10:00 11,0 C 10,5 C 6,7 C 81 % 1003,9 hPa 0,0 l/m 0,00 h 0,00 h 44 W/m 36,6 km/h (5 Bft) 97,22 %
29.12.2022 11:00 11,4 C 11,0 C 7,2 C 76 % 1004,1 hPa 0,0 l/m 0,13 h 0,00 h 103 W/m 43,0 km/h (6 Bft) 97,93 %
29.12.2022 12:00 11,4 C 11,2 C 7,2 C 76 % 1004,8 hPa 0,0 l/m 0,07 h 0,00 h 107 W/m 34,6 km/h (5 Bft) 95,94 %
29.12.2022 13:00 11,2 C 10,6 C 6,9 C 76 % 1005,3 hPa 0,0 l/m 0,00 h 0,00 h 52 W/m 29,4 km/h (5 Bft) 98,65 %
29.12.2022 14:00 11,2 C 10,7 C 6,8 C 77 % 1005,8 hPa 0,0 l/m 0,03 h 0,10 h 66 W/m 26,8 km/h (4 Bft) 94,98 %
29.12.2022 15:00 11,0 C 10,4 C 6,7 C 76 % 1006,1 hPa 0,0 l/m 0,00 h 0,00 h 27 W/m 31,9 km/h (5 Bft) 98,03 %
29.12.2022 16:00 10,6 C 9,7 C 6,0 C 77 % 1006,6 hPa 0,0 l/m 0,00 h 0,00 h 9 W/m 30,4 km/h (5 Bft) 96,88 %
29.12.2022 17:00 10,1 C 9,4 C 5,6 C 78 % 1007,0 hPa 0,0 l/m 0,00 h 0,00 h 0 W/m 27,5 km/h (4 Bft) 97,78 %
29.12.2022 18:00 8,7 C 7,6 C 3,7 C 85 % 1007,9 hPa 0,6 l/m 0,00 h 0,40 h 0 W/m 19,2 km/h (3 Bft) 97,16 %
29.12.2022 19:00 7,7 C 7,0 C 3,0 C 90 % 1008,3 hPa 0,0 l/m 0,00 h 0,00 h 0 W/m 21,8 km/h (4 Bft) 97,58 %
29.12.2022 20:00 7,9 C 7,2 C 3,4 C 86 % 1008,8 hPa 0,0 l/m 0,00 h 0,00 h 0 W/m 18,9 km/h (3 Bft) 95,09 %
29.12.2022 21:00 7,7 C 6,7 C 3,3 C 85 % 1009,4 hPa 0,0 l/m 0,00 h 0,00 h 0 W/m 23,1 km/h (4 Bft) 98,56 %
29.12.2022 22:00 7,5 C 6,7 C 3,3 C 86 % 1009,7 hPa 0,0 l/m 0,00 h 0,00 h 0 W/m 22,3 km/h (4 Bft) 96,79 %
29.12.2022 23:00 7,5 C 6,7 C 3,3 C 85 % 1010,1 hPa 0,0 l/m 0,00 h 0,00 h 0 W/m 20,4 km/h (4 Bft) 94,83 %
30.12.2022 00:00 7,2 C 6,1 C 2,8 C 86 % 1011,0 hPa 0,0 l/m 0,00 h 0,00 h 0 W/m 18,3 km/h (3 Bft) 98,53 %
30.12.2022 01:00 7,0 C 6,1 C 2,8 C 86 % 1011,6 hPa 0,0 l/m 0,00 h 0,00 h 0 W/m 20,1 km/h (4 Bft) 97,20 %
30.12.2022 02:00 6,6 C 5,8 C 2,4 C 86 % 1012,0 hPa 0,0 l/m 0,00 h 0,00 h 0 W/m 17,1 km/h (3 Bft) 97,62 %
30.12.2022 03:00 6,0 C 5,1 C 1,9 C 88 % 1012,3 hPa 0,0 l/m 0,00 h 0,00 h 0 W/m 11,6 km/h (2 Bft) 96,80 %
30.12.2022 04:00 5,5 C 4,4 C 1,7 C 89 % 1012,0 hPa 0,0 l/m 0,00 h 0,00 h 0 W/m 12,2 km/h (3 Bft) 97,94 %
30.12.2022 05:00 5,3 C 4,4 C 1,5 C 90 % 1011,7 hPa 0,0 l/m 0,00 h 0,00 h 0 W/m 11,4 km/h (2 Bft) 95,38 %
30.12.2022 06:00 5,0 C 4,1 C 1,0 C 92 % 1012,0 hPa 0,0 l/m 0,00 h 0,00 h 0 W/m 10,1 km/h (2 Bft) 98,65 %
30.12.2022 07:00 4,4 C 3,6 C 0,6 C 92 % 1011,5 hPa 0,0 l/m 0,00 h 0,00 h 0 W/m 12,0 km/h (2 Bft) 98,09 %
30.12.2022 08:00 4,3 C 3,7 C 0,8 C 93 % 1011,0 hPa 0,0 l/m 0,00 h 0,00 h 7 W/m 14,9 km/h (3 Bft) 94,02 %
30.12.2022 09:00 4,9 C 4,7 C 1,5 C 93 % 1010,2 hPa 0,0 l/m 0,00 h 0,00 h 32 W/m 16,1 km/h (3 Bft) 97,12 %
30.12.2022 10:00 6,4 C 6,6 C 3,1 C 92 % 1009,2 hPa 0,0 l/m 0,10 h 0,00 h 87 W/m 18,9 km/h (3 Bft) 97,16 %
30.12.2022 11:00 8,4 C 8,3 C 4,7 C 86 % 1008,2 hPa 0,0 l/m 0,47 h 0,00 h 136 W/m 28,7 km/h (4 Bft) 96,16 %
30.12.2022 12:00 8,6 C 8,0 C 4,4 C 85 % 1006,6 hPa 0,0 l/m 0,00 h 0,00 h 64 W/m 28,3 km/h (4 Bft) 97,93 %
30.12.2022 13:00 8,8 C 8,2 C 4,8 C 84 % 1004,8 hPa 0,0 l/m 0,00 h 0,00 h 46 W/m 26,9 km/h (4 Bft) 97,14 %
30.12.2022 14:00 8,5 C 7,0 C 3,4 C 88 % 1003,0 hPa 1,4 l/m 0,00 h 0,97 h 29 W/m 27,2 km/h (4 Bft) 96,66 %
30.12.2022 15:00 7,9 C 6,7 C 3,3 C 93 % 1001,4 hPa 0,8 l/m 0,00 h 0,67 h 14 W/m 28,8 km/h (5 Bft) 97,33 %
30.12.2022 16:00 8,0 C 6,9 C 3,9 C 96 % 1001,4 hPa 0,8 l/m 0,00 h 0,00 h 0 W/m 23,9 km/h (4 Bft) 95,98 %
30.12.2022 17:00 8,8 C 8,0 C 5,0 C 97 % 1001,5 hPa 0,4 l/m 0,00 h 0,00 h 0 W/m 18,9 km/h (3 Bft) 97,87 %
30.12.2022 18:00 10,3 C 9,6 C 6,2 C 98 % 1001,8 hPa 0,0 l/m 0,00 h 0,00 h 0 W/m 20,3 km/h (4 Bft) 97,35 %
30.12.2022 19:00 12,2 C 11,4 C 7,4 C 95 % 1002,5 hPa 0,0 l/m 0,00 h 0,40 h 0 W/m 32,2 km/h (5 Bft) 97,58 %
30.12.2022 20:00 13,0 C 12,2 C 7,8 C 92 % 1003,3 hPa 0,0 l/m 0,00 h 0,00 h 0 W/m 30,3 km/h (5 Bft) 97,43 %
30.12.2022 21:00 13,2 C 12,2 C 8,5 C 92 % 1004,0 hPa 0,0 l/m 0,00 h 0,00 h 0 W/m 27,4 km/h (4 Bft) 97,31 %
30.12.2022 22:00 13,2 C 12,2 C 8,9 C 94 % 1004,5 hPa 0,0 l/m 0,00 h 0,27 h 0 W/m 23,7 km/h (4 Bft) 96,58 %
30.12.2022 23:00 13,3 C 12,4 C 8,9 C 94 % 1005,0 hPa 0,2 l/m 0,00 h 0,20 h 0 W/m 23,4 km/h (4 Bft) 98,17 %
31.12.2022 00:00 13,7 C 12,8 C 8,9 C 94 % 1005,1 hPa 0,2 l/m 0,00 h 0,43 h 0 W/m 27,2 km/h (4 Bft) 97,00 %
31.12.2022 01:00 13,3 C 12,3 C 8,9 C 95 % 1004,9 hPa 0,0 l/m 0,00 h 0,30 h 0 W/m 18,4 km/h (3 Bft) 97,87 %
31.12.2022 02:00 14,3 C 13,8 C 10,3 C 94 % 1004,4 hPa 0,0 l/m 0,00 h 0,43 h 0 W/m 34,0 km/h (5 Bft) 96,68 %
31.12.2022 03:00 15,4 C 14,4 C 11,1 C 88 % 1004,5 hPa 0,0 l/m 0,00 h 0,30 h 0 W/m 40,8 km/h (6 Bft) 99,29 %
31.12.2022 04:00 15,6 C 14,4 C 11,0 C 88 % 1004,8 hPa 0,0 l/m 0,00 h 0,70 h 0 W/m 44,1 km/h (6 Bft) 96,44 %
31.12.2022 05:00 15,5 C 14,5 C 11,0 C 89 % 1004,8 hPa 0,0 l/m 0,00 h 0,33 h 0 W/m 43,7 km/h (6 Bft) 96,27 %
31.12.2022 06:00 16,0 C 15,0 C 11,7 C 85 % 1004,9 hPa 0,0 l/m 0,00 h 0,00 h 0 W/m 49,4 km/h (6 Bft) 96,74 %
31.12.2022 07:00 16,2 C 15,4 C 11,7 C 85 % 1005,4 hPa 0,0 l/m 0,00 h 0,00 h 0 W/m 43,3 km/h (6 Bft) 96,94 %
31.12.2022 08:00 16,3 C 15,5 C 11,7 C 84 % 1006,1 hPa 0,0 l/m 0,00 h 0,00 h 4 W/m 44,3 km/h (6 Bft) 95,66 %
31.12.2022 09:00 16,7 C 16,0 C 12,0 C 82 % 1006,7 hPa 0,0 l/m 0,00 h 0,00 h 23 W/m 39,2 km/h (6 Bft) 97,87 %
31.12.2022 10:00 16,9 C 16,2 C 12,2 C 82 % 1007,8 hPa 0,0 l/m 0,00 h 0,00 h 39 W/m 40,6 km/h (6 Bft) 95,17 %
31.12.2022 11:00 17,4 C 16,8 C 12,8 C 79 % 1008,5 hPa 0,0 l/m 0,00 h 0,00 h 78 W/m 41,5 km/h (6 Bft) 99,16 %
31.12.2022 12:00 17,6 C 16,8 C 12,8 C 79 % 1008,4 hPa 0,0 l/m 0,00 h 0,00 h 56 W/m 37,0 km/h (5 Bft) 95,92 %
31.12.2022 13:00 17,3 C 16,3 C 12,1 C 80 % 1008,5 hPa 0,0 l/m 0,00 h 0,40 h 39 W/m 39,6 km/h (6 Bft) 97,17 %
31.12.2022 14:00 17,1 C 16,4 C 12,0 C 79 % 1008,7 hPa 0,0 l/m 0,00 h 0,17 h 64 W/m 41,2 km/h (6 Bft) 97,87 %
31.12.2022 15:00 16,6 C 15,6 C 11,6 C 79 % 1008,8 hPa 0,0 l/m 0,00 h 0,00 h 37 W/m 31,5 km/h (5 Bft) 96,98 %
31.12.2022 16:00 15,5 C 14,4 C 10,6 C 85 % 1009,2 hPa 0,0 l/m 0,00 h 0,00 h 9 W/m 17,6 km/h (3 Bft) 94,41 %
31.12.2022 17:00 15,4 C 14,5 C 10,6 C 82 % 1009,1 hPa 0,0 l/m 0,00 h 0,00 h 0 W/m 20,8 km/h (4 Bft) 98,07 %
31.12.2022 18:00 15,6 C 14,4 C 10,6 C 78 % 1008,9 hPa 0,0 l/m 0,00 h 0,00 h 0 W/m 26,3 km/h (4 Bft) 96,21 %
31.12.2022 19:00 15,5 C 14,4 C 10,6 C 73 % 1008,7 hPa 0,0 l/m 0,00 h 0,00 h 0 W/m 25,2 km/h (4 Bft) 98,84 %
31.12.2022 20:00 15,4 C 14,5 C 10,3 C 69 % 1008,9 hPa 0,0 l/m 0,00 h 0,00 h 0 W/m 19,4 km/h (3 Bft) 96,59 %
31.12.2022 21:00 16,4 C 15,5 C 11,1 C 63 % 1009,7 hPa 0,0 l/m 0,00 h 0,00 h 0 W/m 34,5 km/h (5 Bft) 97,09 %
31.12.2022 22:00 16,5 C 15,6 C 11,1 C 63 % 1010,2 hPa 0,0 l/m 0,00 h 0,00 h 0 W/m 28,2 km/h (4 Bft) 98,01 %
31.12.2022 23:00 16,4 C 15,6 C 11,1 C 63 % 1010,5 hPa 0,0 l/m 0,00 h 0,00 h 0 W/m 32,2 km/h (5 Bft) 97,28 %
01.01.2023 00:00 16,7 C 15,7 C 11,4 C 62 % 1010,6 hPa 0,0 l/m 0,00 h 0,00 h 0 W/m 32,7 km/h (5 Bft) 96,38 %
01.01.2023 01:00 16,7 C 15,7 C 11,3 C 60 % 1010,9 hPa 0,0 l/m 0,00 h 0,00 h 0 W/m 29,4 km/h (5 Bft) 99,37 %
01.01.2023 02:00 16,3 C 15,4 C 11,1 C 57 % 1011,1 hPa 0,0 l/m 0,00 h 0,00 h 0 W/m 36,6 km/h (5 Bft) 96,16 %
01.01.2023 03:00 15,8 C 14,9 C 10,6 C 59 % 1011,4 hPa 0,0 l/m 0,00 h 0,00 h 0 W/m 33,3 km/h (5 Bft) 98,36 %
01.01.2023 04:00 15,5 C 14,4 C 10,6 C 61 % 1011,7 hPa 0,0 l/m 0,00 h 0,07 h 0 W/m 29,5 km/h (5 Bft) 97,44 %
01.01.2023 05:00 15,3 C 14,4 C 10,2 C 64 % 1012,0 hPa 0,0 l/m 0,00 h 0,03 h 0 W/m 31,3 km/h (5 Bft) 97,43 %
01.01.2023 06:00 15,1 C 14,2 C 9,9 C 67 % 1012,4 hPa 0,0 l/m 0,00 h 0,13 h 0 W/m 29,3 km/h (5 Bft) 96,69 %
01.01.2023 07:00 14,7 C 13,9 C 9,6 C 69 % 1013,2 hPa 0,0 l/m 0,00 h 0,00 h 0 W/m 28,1 km/h (4 Bft) 97,81 %
01.01.2023 08:00 14,5 C 13,4 C 8,7 C 73 % 1014,2 hPa 0,0 l/m 0,00 h 0,50 h 0 W/m 31,5 km/h (5 Bft) 94,63 %
01.01.2023 09:00 14,0 C 13,3 C 9,1 C 77 % 1015,1 hPa 0,0 l/m 0,00 h 0,00 h 15 W/m 27,6 km/h (4 Bft) 99,19 %
01.01.2023 10:00 14,1 C 13,3 C 9,3 C 77 % 1015,9 hPa 0,0 l/m 0,00 h 0,00 h 41 W/m 27,8 km/h (4 Bft) 96,46 %
01.01.2023 11:00 14,2 C 13,5 C 9,4 C 78 % 1016,1 hPa 0,0 l/m 0,00 h 0,00 h 62 W/m 26,2 km/h (4 Bft) 97,55 %
01.01.2023 12:00 14,3 C 13,9 C 9,9 C 77 % 1016,4 hPa 0,0 l/m 0,00 h 0,00 h 78 W/m 27,2 km/h (4 Bft) 97,90 %
01.01.2023 13:00 14,3 C 13,7 C 9,5 C 76 % 1016,2 hPa 0,0 l/m 0,00 h 0,00 h 62 W/m 25,4 km/h (4 Bft) 97,39 %
01.01.2023 14:00 14,2 C 13,3 C 9,4 C 76 % 1016,2 hPa 0,0 l/m 0,00 h 0,00 h 38 W/m 22,3 km/h (4 Bft) 96,65 %
01.01.2023 15:00 13,8 C 12,9 C 9,0 C 77 % 1016,2 hPa 0,0 l/m 0,00 h 0,00 h 18 W/m 13,9 km/h (3 Bft) 98,79 %
01.01.2023 16:00 13,4 C 12,4 C 8,4 C 80 % 1016,3 hPa 0,0 l/m 0,00 h 0,17 h 6 W/m 13,2 km/h (3 Bft) 96,30 %
01.01.2023 17:00 12,5 C 11,3 C 6,9 C 85 % 1016,4 hPa 0,4 l/m 0,00 h 0,83 h 0 W/m 10,8 km/h (2 Bft) 98,36 %
01.01.2023 18:00 11,6 C 10,4 C 6,2 C 91 % 1015,8 hPa 0,8 l/m 0,00 h 0,77 h 0 W/m 10,1 km/h (2 Bft) 97,75 %
01.01.2023 19:00 11,2 C 10,0 C 6,2 C 94 % 1015,4 hPa 0,8 l/m 0,00 h 0,77 h 0 W/m 10,0 km/h (2 Bft) 96,22 %
01.01.2023 20:00 10,9 C 10,0 C 6,5 C 96 % 1014,6 hPa 0,2 l/m 0,00 h 0,40 h 0 W/m 14,9 km/h (3 Bft) 98,65 %
01.01.2023 21:00 11,0 C 10,5 C 6,7 C 96 % 1013,4 hPa 0,2 l/m 0,00 h 0,33 h 0 W/m 14,6 km/h (3 Bft) 96,72 %
01.01.2023 22:00 11,1 C 10,6 C 6,7 C 96 % 1012,8 hPa 0,0 l/m 0,00 h 0,60 h 0 W/m 18,4 km/h (3 Bft) 97,15 %
01.01.2023 23:00 11,3 C 10,8 C 6,7 C 95 % 1012,4 hPa 0,0 l/m 0,00 h 0,03 h 0 W/m 15,5 km/h (3 Bft) 96,10 %
Min-Datum _ 26.12.22 26.12.22 27.12.22 01.01.23 30.12.22 - - - - 26.12.22 27.12.22
_ Min-Zeit 21:32 20:26 08:38 02:10 15:28 - - - - 03:28 19:24
Minimum _ 3,5 C 2,8 C 0,0 C 57 % 1001,0 hPa - - - - 0,0 km/h (0 Bft) 35,48 %
Max-Datum _ 31.12.22 31.12.22 31.12.22 26.12.22 27.12.22 26.12.22 27.12.22 28.12.22 30.12.22 31.12.22 26.12.22
_ Max-Zeit 12:20 11:50 11:00 00:00 10:26 01:10 10:45 18:08 11:06 03:00 00:00
Maximum _ 17,7 C 17,2 C 12,8 C 99 % 1026,2 hPa 1,6 l/m 0,08 h 0,07 h 207 W/m 77,2 km/h
S (9 Bft)
100,00 %
Durchschnitt _ 10,1 C 9,4 C 6,0 C 86 % 1012,0 hPa #11,6 l/m #2:02 h #18:26 h 48 W/m 23,5 km/h (4 Bft) 97,07 %
© 2023 W. Hausmann